May Valley, Colorado
Current Conditions -  °F | °C
As of 5:53 PM on Sunday 23 Nov 2014 (Local Time) from KLAA Reporting Station
Clear Clear  
Wind Chill: -3°   Ceiling: Unl
Heat Index:   Visibility: 10mi
Dew Point: -10°   Wind: 7mph
Humidity: 46%   Direction: 320°NW
Pressure: 29.83"   Gusts: NA
Location:  37.885°N, 102.667°W
Report Text: KLAA 240053Z AUTO 32006KT 10SM CLR 01/M10 A2983 RMK AO2 SLP101 T00061100
Loading
Personal Weather Stations






























Interactive Weather Map New forecast layout! Learn more

10-Day Weather Forecast

Advertisements
Track Severe Weather on mobile